Tuesday, June 19, 2018, 12:50 AM EDT
Back to Local

KAUG, Augusta State Airport

Location: Augusta, ME, United States Lat: 44.317
Local Time: 12:50 AM EDT ( 4:50 GMT) Lon: -69.8
Time Zone: US/Eastern Elev: 351 ft

Show me the last for .
Show Decoded

2018-06-19 00:35 METAR KAUG 190435Z AUTO 30004KT 2SM -RA BR BKN005 BKN011 OVC034 22/22 A2954 RMK
                 AO2 P0007 T02170217 =
2018-06-19 00:22 METAR KAUG 190422Z AUTO 27004KT 5SM -RA BR FEW004 BKN013 OVC050 22/21 A2955 RMK
                 AO2 P0004 T02170211 =
2018-06-19 00:13 METAR KAUG 190413Z AUTO 24004KT 4SM -RA BR BKN006 BKN015 OVC045 22/21 A2954 RMK
                 AO2 P0004 T02170211 =
2018-06-18 23:53 METAR KAUG 190353Z AUTO 27003KT 2SM RA BR OVC006 22/21 A2955 RMK AO2 RAE0257B33
                 CIG 004V009 SLP005 P0011 T02170211 =
2018-06-18 23:41 METAR KAUG 190341Z AUTO 26004KT 1 3/4SM +RA BR OVC006 22/21 A2955 RMK AO2
                 RAE0257B33 CIG 005V011 P0006 T02170211 =
2018-06-18 23:04 METAR KAUG 190304Z AUTO VRB04KT 9SM BKN008 BKN060 OVC075 22/21 A2955 RMK AO2
                 RAE0257 P0000 T02170206 =
2018-06-18 22:53 METAR KAUG 190253Z AUTO 22005KT 10SM -RA SCT009 BKN060 OVC100 22/21 A2956 RMK
                 AO2 RAB31 SLP009 P0000 60000 T02170206 58015 =
2018-06-18 21:53 METAR KAUG 190153Z AUTO 20007KT 160V240 10SM FEW007 SCT090 22/21 A2958 RMK AO2
                 SLP015 T02170206 =
2018-06-18 20:53 METAR KAUG 190053Z AUTO 19008G18KT 160V240 10SM FEW007 SCT055 SCT070 22/21 A2960
                 RMK AO2 SLP023 T02220211 =
2018-06-18 20:11 METAR KAUG 190011Z AUTO 20009G16KT 8SM FEW007 23/22 A2961 RMK AO2 T02280217 =
2018-06-18 19:53 METAR KAUG 182353Z AUTO 20008KT 9SM CLR 23/22 A2961 RMK AO2 LTG DSNT S SLP025
                 60005 T02330217 10261 20228 58017 =
2018-06-18 18:53 METAR KAUG 182253Z AUTO 21008KT 10SM SCT085 24/21 A2963 RMK AO2 SLP034 T02390211
                 =
2018-06-18 17:53 METAR KAUG 182153Z AUTO 22008KT 8SM FEW028 24/22 A2964 RMK AO2 LTG DSNT S
                 RAB33E53 SLP035 P0000 T02390217 =
2018-06-18 16:53 METAR KAUG 182053Z AUTO 20007KT 8SM FEW032 BKN110 23/21 A2966 RMK AO2 RAE35
                 SLP042 P0005 60005 T02280206 58022 =
2018-06-18 16:13 METAR KAUG 182013Z AUTO 35005KT 3SM -RA BR FEW050 BKN060 OVC110 23/21 A2971 RMK
                 AO2 P0004 T02280206 =
2018-06-18 16:05 METAR KAUG 182005Z AUTO 00000KT 1 3/4SM +RA BKN055 BKN070 OVC110 23/20 A2971 RMK
                 AO2 VIS 1V5 P0004 T02280200 =
2018-06-18 15:53 METAR KAUG 181953Z AUTO 24003KT 9SM -RA SCT060 BKN080 BKN110 24/19 A2971 RMK AO2
                 RAB32 SLP059 P0000 T02390189 =
2018-06-18 14:53 METAR KAUG 181853Z AUTO 18007KT 10SM CLR 24/18 A2971 RMK AO2 SLP059 T02440183 =
2018-06-18 13:53 METAR KAUG 181753Z AUTO 17005KT 10SM CLR 26/18 A2972 RMK AO2 SLP065 60001
                 T02560183 10267 20133 58031 =
2018-06-18 12:53 METAR KAUG 181653Z AUTO 16008KT 130V200 10SM CLR 26/18 A2975 RMK AO2 SLP075
                 T02560178 =
2018-06-18 11:53 METAR KAUG 181553Z AUTO VRB04KT 10SM CLR 24/17 A2980 RMK AO2 SLP089 T02390172 =
2018-06-18 10:53 METAR KAUG 181453Z AUTO 12004KT 10SM CLR 21/16 A2982 RMK AO2 SLP096 60001
                 T02110161 58024 =
2018-06-18 09:53 METAR KAUG 181353Z AUTO VRB03KT 10SM CLR 18/14 A2987 RMK AO2 SLP115 T01780144 =
2018-06-18 08:53 METAR KAUG 181253Z AUTO 00000KT 8SM BKN120 15/14 A2987 RMK AO2 RAE32 SLP116
                 P0001 T01500139 =
2018-06-18 08:01 METAR KAUG 181201Z AUTO VRB04KT 7SM -RA FEW004 FEW095 BKN110 13/13 A2989 RMK AO2
                 P0000 T01330128 =
2018-06-18 07:53 METAR KAUG 181153Z AUTO 19005KT 6SM -RA BR SCT110 13/13 A2989 RMK AO2 RAB1059
                 SLP122 P0000 60001 70001 T01330128 10133 20117 56022 =
2018-06-18 06:53 METAR KAUG 181053Z AUTO 16005KT 6SM BR SCT003 BKN120 13/12 A2991 RMK AO2
                 RAB01E44 SLP127 P0001 T01280122 =
2018-06-18 06:18 METAR KAUG 181018Z AUTO 15006KT 5SM -RA BR SCT003 BKN120 13/12 A2990 RMK AO2
                 RAB01 P0001 T01280122 =
2018-06-18 05:53 METAR KAUG 180953Z AUTO 18005KT 7SM BKN004 13/12 A2992 RMK AO2 RAB0855E19 SLP131
                 P0000 T01280122 =
2018-06-18 05:44 METAR KAUG 180944Z AUTO 00000KT 8SM BKN004 13/12 A2993 RMK AO2 RAB0855E19 P0000
                 T01280117 =
2018-06-18 05:17 METAR KAUG 180917Z AUTO 16008KT 6SM -RA BR SCT003 BKN120 12/12 A2993 RMK AO2
                 RAB0855 PRESFR P0000 T01220117 =
2018-06-18 04:53 METAR KAUG 180853Z AUTO 00000KT 7SM OVC003 12/12 A2996 RMK AO2 RAB12E23 SLP143
                 P0000 60000 T01220117 56014 =
2018-06-18 03:53 METAR KAUG 180753Z AUTO 00000KT 9SM OVC003 12/11 A2997 RMK AO2 SLP148 T01170111
                 =
2018-06-18 03:18 METAR KAUG 180718Z AUTO VRB03KT 9SM BKN003 12/11 A2996 RMK AO2 T01170111 =
2018-06-18 03:09 METAR KAUG 180709Z AUTO 19003KT 9SM SCT003 12/11 A2996 RMK AO2 T01170111 =
2018-06-18 02:53 METAR KAUG 180653Z AUTO VRB05KT 9SM CLR 12/11 A2997 RMK AO2 SLP148 T01170111 =
2018-06-18 01:53 METAR KAUG 180553Z AUTO 17003KT 10SM CLR 12/11 A3000 RMK AO2 SLP157 T01170106
                 10161 20117 58022 =
2018-06-18 00:53 METAR KAUG 180453Z AUTO 16005KT 10SM CLR 12/11 A3003 RMK AO2 SLP167 T01170106
                 402830117 =

Support USWX by starting your Amazon purchase here.